createdAt,value
2019-05-14T00:01:44.588Z,8.70
2019-05-14T00:04:14.962Z,4.23
2019-05-14T00:06:46.226Z,5.10
2019-05-14T00:09:16.524Z,7.40
2019-05-14T00:11:47.088Z,4.33
2019-05-14T00:14:17.389Z,5.53
2019-05-14T00:16:47.684Z,5.57
2019-05-14T00:19:18.029Z,7.00
2019-05-14T00:21:51.446Z,5.70
2019-05-14T00:24:21.827Z,8.80
2019-05-14T00:26:52.207Z,5.43
2019-05-14T00:29:22.499Z,4.40
2019-05-14T00:31:52.795Z,2.90
2019-05-14T00:34:23.117Z,2.70
2019-05-14T00:36:53.407Z,4.57
2019-05-14T00:39:24.168Z,4.03
2019-05-14T00:41:54.463Z,3.03
2019-05-14T00:44:25.172Z,3.23
2019-05-14T00:46:55.867Z,3.27
2019-05-14T00:49:26.501Z,4.57
2019-05-14T00:51:56.796Z,3.03
2019-05-14T00:54:27.456Z,4.30
2019-05-14T00:56:57.822Z,3.63
2019-05-14T00:59:28.177Z,3.93
2019-05-14T01:01:58.470Z,6.13
2019-05-14T01:04:28.941Z,6.43
2019-05-14T01:07:01.570Z,4.03
2019-05-14T01:09:31.802Z,4.30
2019-05-14T01:12:02.528Z,3.50
2019-05-14T01:14:33.188Z,5.13
2019-05-14T01:17:03.480Z,2.63
2019-05-14T01:19:33.841Z,5.30
2019-05-14T01:22:04.517Z,5.53
2019-05-14T01:24:34.800Z,6.63
2019-05-14T01:27:05.429Z,5.87
2019-05-14T01:29:35.729Z,4.87
2019-05-14T01:32:06.692Z,8.93
2019-05-14T01:34:37.041Z,6.13
2019-05-14T01:37:07.324Z,5.73
2019-05-14T01:39:37.773Z,3.90
2019-05-14T01:42:08.534Z,4.40
2019-05-14T01:44:41.256Z,3.20
2019-05-14T01:47:12.751Z,4.50
2019-05-14T01:49:43.244Z,3.67
2019-05-14T01:52:13.540Z,4.57
2019-05-14T01:54:43.853Z,5.10
2019-05-14T01:57:15.480Z,3.80
2019-05-14T01:59:45.774Z,6.40
2019-05-14T02:02:16.432Z,4.67
2019-05-14T02:04:48.513Z,4.13
2019-05-14T02:07:18.874Z,6.80
2019-05-14T02:09:51.735Z,5.17
2019-05-14T02:12:22.497Z,4.10
2019-05-14T02:14:52.901Z,3.67
2019-05-14T02:17:23.193Z,5.27
2019-05-14T02:19:53.522Z,5.27
2019-05-14T02:22:23.884Z,3.73
2019-05-14T02:24:54.501Z,6.23
2019-05-14T02:27:24.801Z,5.60
2019-05-14T02:29:55.509Z,4.93
2019-05-14T02:32:29.570Z,5.57
2019-05-14T02:34:59.004Z,4.13
2019-05-14T02:37:30.199Z,3.67
2019-05-14T02:40:01.073Z,7.00
2019-05-14T02:42:31.562Z,6.53
2019-05-14T02:45:02.053Z,4.13
2019-05-14T02:47:32.644Z,6.37
2019-05-14T02:50:03.446Z,4.80
2019-05-14T02:52:33.921Z,4.07
2019-05-14T02:55:04.773Z,8.93
2019-05-14T02:57:35.198Z,8.37
2019-05-14T03:00:09.794Z,9.70
2019-05-14T03:02:40.342Z,7.20
2019-05-14T03:05:11.112Z,3.30
2019-05-14T03:07:42.349Z,6.10
2019-05-14T03:10:13.225Z,6.10
2019-05-14T03:12:43.699Z,5.50
2019-05-14T03:15:14.905Z,8.33
2019-05-14T03:17:45.432Z,9.03
2019-05-14T03:20:19.706Z,7.73
2019-05-14T03:23:01.818Z,5.63
2019-05-14T03:25:22.021Z,7.87
2019-05-14T03:27:52.445Z,5.97
2019-05-14T03:30:23.673Z,8.70
2019-05-14T03:32:54.258Z,6.73
2019-05-14T03:35:39.364Z,8.73
2019-05-14T03:38:00.156Z,10.03
2019-05-14T03:40:29.594Z,9.23
2019-05-14T03:43:00.139Z,8.50
2019-05-14T03:45:30.873Z,7.63
2019-05-14T03:48:01.708Z,9.10
2019-05-14T03:50:32.136Z,8.13
2019-05-14T03:53:02.896Z,5.70
2019-05-14T03:55:33.361Z,5.87
2019-05-14T03:58:03.881Z,5.43
2019-05-14T04:00:50.836Z,7.80
2019-05-14T04:03:22.157Z,8.60
2019-05-14T04:05:54.221Z,8.13
2019-05-14T04:08:29.325Z,7.67
2019-05-14T04:11:00.707Z,7.00
2019-05-14T04:13:33.096Z,6.60
2019-05-14T04:16:04.446Z,8.40
2019-05-14T04:18:40.182Z,8.87
2019-05-14T04:21:14.245Z,8.83
2019-05-14T04:23:51.015Z,8.87
2019-05-14T04:26:23.892Z,7.93
2019-05-14T04:29:00.197Z,9.27
2019-05-14T04:31:32.699Z,16.03
2019-05-14T04:34:04.373Z,11.53
2019-05-14T04:36:35.278Z,10.97
2019-05-14T04:39:09.555Z,9.17
2019-05-14T04:41:39.985Z,6.23
2019-05-14T04:44:10.418Z,8.67
2019-05-14T04:46:40.844Z,8.27
2019-05-14T04:49:11.329Z,10.20
2019-05-14T04:51:41.770Z,9.57
2019-05-14T04:54:13.161Z,11.90
2019-05-14T04:56:43.626Z,9.57
2019-05-14T04:59:14.086Z,7.90
2019-05-14T05:01:44.518Z,13.70
2019-05-14T05:04:15.433Z,10.57
2019-05-14T05:06:45.863Z,11.53
2019-05-14T05:09:19.787Z,9.07
2019-05-14T05:11:49.733Z,5.50
2019-05-14T05:14:23.724Z,8.13
2019-05-14T05:16:53.048Z,7.60
2019-05-14T05:19:24.551Z,6.80
2019-05-14T05:21:55.851Z,10.70
2019-05-14T05:24:28.559Z,9.20
2019-05-14T05:26:58.766Z,9.77
2019-05-14T05:29:29.905Z,9.60
2019-05-14T05:32:00.334Z,7.97
2019-05-14T05:34:30.816Z,8.60
2019-05-14T05:37:01.248Z,8.27
2019-05-14T05:39:31.675Z,6.60
2019-05-14T05:42:02.156Z,10.50
2019-05-14T05:44:32.904Z,8.07
2019-05-14T05:47:03.362Z,9.73
2019-05-14T05:49:33.845Z,9.73
2019-05-14T05:52:04.611Z,8.17
2019-05-14T05:54:35.380Z,8.50
2019-05-14T05:57:06.098Z,7.20
2019-05-14T05:59:39.179Z,7.80
2019-05-14T06:02:09.604Z,6.77
2019-05-14T06:04:40.141Z,6.10
2019-05-14T06:07:10.978Z,4.10
2019-05-14T06:09:41.401Z,7.63
2019-05-14T06:12:12.181Z,3.87
2019-05-14T06:14:42.980Z,5.37
2019-05-14T06:17:13.853Z,6.57
2019-05-14T06:19:44.510Z,4.73
2019-05-14T06:22:14.945Z,4.33
2019-05-14T06:24:48.353Z,9.50
2019-05-14T06:27:18.290Z,10.93
2019-05-14T06:29:49.131Z,6.87
2019-05-14T06:32:19.569Z,4.43
2019-05-14T06:34:50.058Z,4.57
2019-05-14T06:37:20.490Z,5.07
2019-05-14T06:39:50.916Z,4.50
2019-05-14T06:42:21.796Z,5.33
2019-05-14T06:44:52.267Z,6.37
2019-05-14T06:47:22.696Z,3.93
2019-05-14T06:49:53.653Z,5.90
2019-05-14T06:52:24.470Z,4.57
2019-05-14T06:54:54.905Z,4.10
2019-05-14T06:57:25.480Z,5.20
2019-05-14T06:59:58.743Z,6.93
2019-05-14T07:02:28.715Z,5.70
2019-05-14T07:04:59.242Z,4.57
2019-05-14T07:07:30.243Z,4.73
2019-05-14T07:10:00.847Z,5.53
2019-05-14T07:12:31.334Z,5.23
2019-05-14T07:15:02.196Z,6.10
2019-05-14T07:17:33.075Z,4.47
2019-05-14T07:20:03.551Z,4.17
2019-05-14T07:22:34.326Z,4.03
2019-05-14T07:25:05.736Z,4.90
2019-05-14T07:27:38.976Z,7.20
2019-05-14T07:30:09.529Z,5.67
2019-05-14T07:32:40.035Z,6.63
2019-05-14T07:35:10.898Z,4.47
2019-05-14T07:37:41.325Z,5.13
2019-05-14T07:40:12.316Z,4.40
2019-05-14T07:42:42.742Z,4.87
2019-05-14T07:45:13.698Z,6.67
2019-05-14T07:47:44.192Z,5.43
2019-05-14T07:50:15.105Z,5.90
2019-05-14T07:52:46.267Z,5.27
2019-05-14T07:55:18.475Z,8.17
2019-05-14T07:57:49.170Z,4.77
2019-05-14T08:00:20.205Z,5.17
2019-05-14T08:02:51.573Z,5.67
2019-05-14T08:05:22.014Z,10.47
2019-05-14T08:07:52.453Z,4.73
2019-05-14T08:10:23.045Z,5.53
2019-05-14T08:12:54.247Z,5.47
2019-05-14T08:15:25.033Z,4.47
2019-05-14T08:17:55.523Z,4.77
2019-05-14T08:20:25.958Z,5.20
2019-05-14T08:22:58.197Z,2.30
2019-05-14T08:25:29.008Z,3.23
2019-05-14T08:27:59.547Z,3.47
2019-05-14T08:30:29.991Z,3.40
2019-05-14T08:33:00.473Z,3.27
2019-05-14T08:35:34.045Z,2.40
2019-05-14T08:38:07.631Z,3.60
2019-05-14T08:40:35.258Z,3.77
2019-05-14T08:43:05.701Z,3.80
2019-05-14T08:45:36.130Z,3.60
2019-05-14T08:48:09.165Z,4.03
2019-05-14T08:50:39.272Z,5.07
2019-05-14T08:53:09.981Z,3.83
2019-05-14T08:55:40.760Z,5.50
2019-05-14T08:58:13.915Z,3.77
2019-05-14T09:00:43.326Z,2.80
2019-05-14T09:03:13.805Z,2.50
2019-05-14T09:05:44.285Z,1.90
2019-05-14T09:08:14.718Z,4.10
2019-05-14T09:10:45.212Z,1.77
2019-05-14T09:13:18.195Z,2.23
2019-05-14T09:15:48.920Z,1.50
2019-05-14T09:18:19.661Z,3.70
2019-05-14T09:20:50.089Z,2.57
2019-05-14T09:23:20.522Z,3.97
2019-05-14T09:25:53.402Z,1.47
2019-05-14T09:28:23.305Z,1.53
2019-05-14T09:30:54.707Z,1.50
2019-05-14T09:33:26.035Z,1.33
2019-05-14T09:36:13.738Z,2.63
2019-05-14T09:38:29.447Z,1.57
2019-05-14T09:41:10.610Z,1.90
2019-05-14T09:43:32.994Z,1.30
2019-05-14T09:46:03.438Z,1.87
2019-05-14T09:48:33.873Z,1.50
2019-05-14T09:51:04.449Z,2.47
2019-05-14T09:53:34.885Z,1.67
2019-05-14T09:56:05.327Z,2.10
2019-05-14T09:58:38.512Z,3.03
2019-05-14T10:01:08.713Z,2.30
2019-05-14T10:03:39.721Z,0.90
2019-05-14T10:06:10.210Z,5.00
2019-05-14T10:08:40.859Z,2.50
2019-05-14T10:11:11.329Z,2.30
2019-05-14T10:13:42.084Z,2.27
2019-05-14T10:16:12.518Z,1.20
2019-05-14T10:18:43.317Z,2.47
2019-05-14T10:21:14.124Z,1.73
2019-05-14T10:23:44.856Z,4.33
2019-05-14T10:26:18.537Z,4.40
2019-05-14T10:28:48.634Z,2.27
2019-05-14T10:31:19.235Z,1.93
2019-05-14T10:33:50.049Z,2.50
2019-05-14T10:36:20.549Z,1.17
2019-05-14T10:38:50.987Z,1.27
2019-05-14T10:41:21.440Z,2.87
2019-05-14T10:43:51.943Z,1.40
2019-05-14T10:46:22.387Z,1.93
2019-05-14T10:48:53.137Z,3.10
2019-05-14T10:51:23.982Z,1.30
2019-05-14T10:53:55.538Z,1.47
2019-05-14T10:56:25.992Z,1.27
2019-05-14T10:58:58.426Z,1.77
2019-05-14T11:01:29.408Z,1.57
2019-05-14T11:04:00.184Z,1.30
2019-05-14T11:06:31.100Z,1.00
2019-05-14T11:09:01.554Z,3.53
2019-05-14T11:11:31.981Z,1.17
2019-05-14T11:14:02.495Z,1.07
2019-05-14T11:16:32.925Z,1.77
2019-05-14T11:19:03.358Z,2.40
2019-05-14T11:21:33.935Z,2.70
2019-05-14T11:24:04.482Z,1.00
2019-05-14T11:26:34.916Z,1.70
2019-05-14T11:29:05.883Z,1.47
2019-05-14T11:31:39.094Z,1.90
2019-05-14T11:34:09.166Z,0.83
2019-05-14T11:36:39.658Z,1.40
2019-05-14T11:39:10.197Z,1.00
2019-05-14T11:41:40.632Z,1.37
2019-05-14T11:44:11.126Z,1.33
2019-05-14T11:46:51.368Z,1.83
2019-05-14T11:49:14.185Z,3.03
2019-05-14T11:52:00.940Z,1.53
2019-05-14T11:54:18.768Z,1.70
2019-05-14T11:56:49.409Z,1.60
2019-05-14T11:59:19.894Z,1.37
2019-05-14T12:01:50.345Z,3.40
2019-05-14T12:04:21.077Z,1.23
2019-05-14T12:06:51.572Z,1.07
2019-05-14T12:09:22.059Z,2.03
2019-05-14T12:11:52.493Z,2.33
2019-05-14T12:14:22.995Z,2.03
2019-05-14T12:16:53.445Z,1.57
2019-05-14T12:19:23.902Z,1.10
2019-05-14T12:22:06.340Z,1.27
2019-05-14T12:24:28.986Z,1.67
2019-05-14T12:26:58.813Z,2.40
2019-05-14T12:29:29.505Z,1.27
2019-05-14T12:31:59.957Z,2.23
2019-05-14T12:34:30.666Z,1.80
2019-05-14T12:37:01.119Z,2.77
2019-05-14T12:39:31.907Z,5.67
2019-05-14T12:42:02.586Z,4.63
2019-05-14T12:44:33.191Z,3.30
2019-05-14T12:47:03.642Z,2.87
2019-05-14T12:49:34.146Z,4.70
2019-05-14T12:52:19.030Z,1.57
2019-05-14T12:54:38.661Z,2.07
2019-05-14T12:57:09.796Z,1.83
2019-05-14T12:59:40.562Z,1.13
2019-05-14T13:02:11.032Z,1.17
2019-05-14T13:04:41.527Z,2.33
2019-05-14T13:07:11.959Z,1.97
2019-05-14T13:09:42.464Z,1.70
2019-05-14T13:12:13.205Z,1.60
2019-05-14T13:14:43.652Z,1.83
2019-05-14T13:17:14.129Z,2.87
2019-05-14T13:19:44.661Z,1.00
2019-05-14T13:22:19.091Z,0.93
2019-05-14T13:24:49.276Z,0.90
2019-05-14T13:27:19.519Z,0.93
2019-05-14T13:29:51.591Z,3.70
2019-05-14T13:32:22.093Z,1.40
2019-05-14T13:34:52.556Z,2.27
2019-05-14T13:37:23.761Z,1.83
2019-05-14T13:39:54.575Z,3.63
2019-05-14T13:42:25.020Z,2.17
2019-05-14T13:44:55.457Z,3.03
2019-05-14T13:47:28.628Z,1.70
2019-05-14T13:49:59.232Z,1.10
2019-05-14T13:52:30.267Z,1.87
2019-05-14T13:55:00.766Z,1.33
2019-05-14T13:57:31.584Z,1.67
2019-05-14T14:00:02.038Z,1.23
2019-05-14T14:02:32.552Z,0.97
2019-05-14T14:05:03.401Z,1.13
2019-05-14T14:07:34.241Z,3.40
2019-05-14T14:10:04.880Z,1.77
2019-05-14T14:12:35.316Z,1.53
2019-05-14T14:15:09.555Z,2.03
2019-05-14T14:17:39.620Z,1.37
2019-05-14T14:20:10.997Z,4.17
2019-05-14T14:22:41.444Z,1.43
2019-05-14T14:25:12.555Z,1.43
2019-05-14T14:27:43.005Z,1.43
2019-05-14T14:30:14.785Z,2.07
2019-05-14T14:32:45.265Z,2.30
2019-05-14T14:35:15.864Z,0.83
2019-05-14T14:37:49.188Z,1.83
2019-05-14T14:40:22.054Z,3.30
2019-05-14T14:42:51.303Z,1.57
2019-05-14T14:45:22.043Z,1.53
2019-05-14T14:47:52.981Z,0.60
2019-05-14T14:50:23.413Z,1.73
2019-05-14T14:52:54.251Z,1.00
2019-05-14T14:55:24.757Z,1.23
2019-05-14T14:57:55.782Z,2.23
2019-05-14T15:00:29.146Z,1.47
2019-05-14T15:02:59.666Z,0.87
2019-05-14T15:05:30.434Z,1.67
2019-05-14T15:08:01.147Z,0.60
2019-05-14T15:10:31.975Z,1.40
2019-05-14T15:13:02.798Z,2.07
2019-05-14T15:15:34.821Z,1.17
2019-05-14T15:18:05.686Z,2.50
2019-05-14T15:20:36.406Z,1.53
2019-05-14T15:23:09.772Z,1.43
2019-05-14T15:25:39.238Z,3.50
2019-05-14T15:28:09.716Z,1.23
2019-05-14T15:30:40.326Z,1.90
2019-05-14T15:33:10.842Z,1.10
2019-05-14T15:35:41.300Z,1.87
2019-05-14T15:38:11.753Z,0.80
2019-05-14T15:40:42.242Z,1.17
2019-05-14T15:43:13.089Z,2.70
2019-05-14T15:45:43.539Z,1.00
2019-05-14T15:48:14.804Z,1.07
2019-05-14T15:50:46.311Z,2.03
2019-05-14T15:53:19.285Z,2.37
2019-05-14T15:55:49.365Z,1.27
2019-05-14T15:58:21.229Z,2.97
2019-05-14T16:00:51.933Z,2.10
2019-05-14T16:03:22.757Z,2.50
2019-05-14T16:05:53.189Z,4.00
2019-05-14T16:08:23.642Z,2.73
2019-05-14T16:10:54.134Z,2.60
2019-05-14T16:13:24.896Z,1.83
2019-05-14T16:15:55.737Z,2.13
2019-05-14T16:18:26.406Z,1.73
2019-05-14T16:20:59.375Z,3.53
2019-05-14T16:23:29.010Z,5.50
2019-05-14T16:25:59.505Z,2.40
2019-05-14T16:28:29.959Z,1.00
2019-05-14T16:31:00.769Z,1.80
2019-05-14T16:33:31.596Z,1.37
2019-05-14T16:36:02.345Z,1.73
2019-05-14T16:38:32.796Z,3.43
2019-05-14T16:41:04.391Z,2.47
2019-05-14T16:43:34.817Z,1.30
2019-05-14T16:46:05.684Z,1.23
2019-05-14T16:48:36.168Z,1.73
2019-05-14T16:51:08.884Z,1.43
2019-05-14T16:53:39.513Z,3.13
2019-05-14T16:56:09.992Z,2.93
2019-05-14T16:58:40.438Z,0.80
2019-05-14T17:01:11.183Z,4.90
2019-05-14T17:03:41.671Z,0.90
2019-05-14T17:06:12.437Z,1.90
2019-05-14T17:08:42.908Z,1.63
2019-05-14T17:11:13.786Z,1.70
2019-05-14T17:13:44.626Z,2.43
2019-05-14T17:16:15.057Z,1.97
2019-05-14T17:18:48.432Z,3.33
2019-05-14T17:21:18.408Z,1.23
2019-05-14T17:23:49.157Z,3.90
2019-05-14T17:26:19.848Z,3.30
2019-05-14T17:28:50.328Z,2.47
2019-05-14T17:31:20.782Z,1.20
2019-05-14T17:33:51.852Z,3.73
2019-05-14T17:36:22.285Z,1.17
2019-05-14T17:38:53.094Z,1.50
2019-05-14T17:41:23.592Z,0.93
2019-05-14T17:43:55.548Z,1.80
2019-05-14T17:46:28.833Z,1.53
2019-05-14T17:49:00.445Z,1.33
2019-05-14T17:51:31.508Z,1.10
2019-05-14T17:54:02.352Z,2.47
2019-05-14T17:56:33.597Z,4.80
2019-05-14T17:59:04.334Z,2.33
2019-05-14T18:01:35.657Z,1.70
2019-05-14T18:04:08.605Z,1.87
2019-05-14T18:06:38.698Z,2.07
2019-05-14T18:09:09.258Z,1.57
2019-05-14T18:11:40.651Z,1.63
2019-05-14T18:14:11.809Z,1.40
2019-05-14T18:16:43.053Z,2.00
2019-05-14T18:19:13.533Z,1.97
2019-05-14T18:21:43.989Z,3.10
2019-05-14T18:24:15.217Z,1.10
2019-05-14T18:26:47.953Z,2.47
2019-05-14T18:29:18.937Z,0.87
2019-05-14T18:31:53.908Z,4.63
2019-05-14T18:34:22.149Z,1.63
2019-05-14T18:36:53.749Z,2.43
2019-05-14T18:39:44.532Z,3.13
2019-05-14T18:42:15.349Z,3.03
2019-05-14T18:44:49.605Z,2.87
2019-05-14T18:47:20.008Z,1.80
2019-05-14T18:49:50.615Z,1.40
2019-05-14T18:52:21.733Z,1.87
2019-05-14T18:54:52.589Z,1.83
2019-05-14T18:57:23.042Z,2.57
2019-05-14T18:59:53.474Z,2.37
2019-05-14T19:02:25.561Z,4.20
2019-05-14T19:04:57.974Z,1.30
2019-05-14T19:07:28.899Z,1.73
2019-05-14T19:09:59.432Z,2.87
2019-05-14T19:12:29.876Z,2.23
2019-05-14T19:15:01.827Z,2.17
2019-05-14T19:17:32.685Z,2.57
2019-05-14T19:20:03.118Z,1.40
2019-05-14T19:22:33.850Z,1.80
2019-05-14T19:25:04.422Z,3.10
2019-05-14T19:27:34.857Z,1.93
2019-05-14T19:30:08.228Z,2.73
2019-05-14T19:32:39.400Z,2.30
2019-05-14T19:35:10.540Z,5.90
2019-05-14T19:37:41.343Z,2.73
2019-05-14T19:40:12.688Z,1.20
2019-05-14T19:42:43.535Z,1.77
2019-05-14T19:45:14.383Z,2.13
2019-05-14T19:47:45.209Z,2.70
2019-05-14T19:50:18.591Z,2.07
2019-05-14T19:52:48.969Z,1.23
2019-05-14T19:55:19.373Z,2.33
2019-05-14T19:57:50.245Z,3.03
2019-05-14T20:00:25.273Z,2.20
2019-05-14T20:02:58.054Z,1.63
2019-05-14T20:05:28.671Z,6.43
2019-05-14T20:07:59.629Z,1.77
2019-05-14T20:10:30.124Z,3.13
2019-05-14T20:13:00.546Z,3.17
2019-05-14T20:15:31.031Z,1.60
2019-05-14T20:18:01.916Z,3.27
2019-05-14T20:20:33.414Z,3.10
2019-05-14T20:23:03.859Z,2.53
2019-05-14T20:25:34.758Z,1.47
2019-05-14T20:28:05.424Z,3.10
2019-05-14T20:30:38.636Z,1.53
2019-05-14T20:33:09.216Z,1.67
2019-05-14T20:35:39.648Z,2.50
2019-05-14T20:38:10.484Z,1.30
2019-05-14T20:40:40.996Z,1.73
2019-05-14T20:43:11.441Z,2.07
2019-05-14T20:45:41.873Z,1.87
2019-05-14T20:48:12.344Z,1.77
2019-05-14T20:50:42.788Z,2.03
2019-05-14T20:53:13.589Z,3.77
2019-05-14T20:55:44.116Z,2.37
2019-05-14T20:58:15.291Z,3.37
2019-05-14T21:00:45.720Z,1.23
2019-05-14T21:03:18.517Z,5.20
2019-05-14T21:05:49.223Z,1.60
2019-05-14T21:08:20.026Z,1.50
2019-05-14T21:10:50.884Z,2.30
2019-05-14T21:13:22.441Z,1.17
2019-05-14T21:15:53.328Z,1.50
2019-05-14T21:18:34.775Z,2.17
2019-05-14T21:20:57.307Z,1.43
2019-05-14T21:23:29.873Z,4.50
2019-05-14T21:25:59.883Z,1.53
2019-05-14T21:28:30.387Z,2.90
2019-05-14T21:31:01.011Z,2.40
2019-05-14T21:33:32.135Z,1.73
2019-05-14T21:36:02.627Z,1.57
2019-05-14T21:38:33.387Z,1.20
2019-05-14T21:41:03.807Z,3.67
2019-05-14T21:43:34.690Z,2.53
2019-05-14T21:46:05.378Z,1.43
2019-05-14T21:48:35.795Z,6.47
2019-05-14T21:51:08.550Z,2.97
2019-05-14T21:53:41.173Z,1.53
2019-05-14T21:56:10.555Z,3.40
2019-05-14T21:58:41.327Z,1.27
2019-05-14T22:01:12.827Z,2.93
2019-05-14T22:03:43.302Z,1.57
2019-05-14T22:06:13.708Z,1.70
2019-05-14T22:08:44.134Z,1.70
2019-05-14T22:11:14.606Z,2.90
2019-05-14T22:13:45.375Z,1.33
2019-05-14T22:16:16.265Z,1.57
2019-05-14T22:18:48.349Z,1.23
2019-05-14T22:21:18.896Z,3.50
2019-05-14T22:23:49.323Z,2.33
2019-05-14T22:26:19.809Z,1.53
2019-05-14T22:28:50.413Z,1.30
2019-05-14T22:31:20.833Z,1.50
2019-05-14T22:33:51.591Z,4.40
2019-05-14T22:36:22.453Z,3.20
2019-05-14T22:38:52.862Z,1.13
2019-05-14T22:41:23.599Z,2.63
2019-05-14T22:43:56.800Z,2.43
2019-05-14T22:46:26.130Z,2.90
2019-05-14T22:48:58.601Z,2.30
2019-05-14T22:51:28.747Z,1.83
2019-05-14T22:53:59.558Z,1.53
2019-05-14T22:56:30.046Z,3.30
2019-05-14T22:59:00.787Z,2.13
2019-05-14T23:01:31.475Z,1.07
2019-05-14T23:04:01.939Z,5.00
2019-05-14T23:06:33.063Z,4.37
2019-05-14T23:09:04.481Z,1.60
2019-05-14T23:11:34.949Z,2.77
2019-05-14T23:14:07.728Z,5.47
2019-05-14T23:16:41.828Z,3.77
2019-05-14T23:19:10.998Z,1.60
2019-05-14T23:21:41.420Z,2.37
2019-05-14T23:24:11.832Z,2.60
2019-05-14T23:26:42.612Z,3.70
2019-05-14T23:29:13.416Z,2.37
2019-05-14T23:31:44.000Z,2.13
2019-05-14T23:34:14.484Z,1.40
2019-05-14T23:36:44.908Z,1.90
2019-05-14T23:39:15.811Z,4.73
2019-05-14T23:41:48.597Z,1.43
2019-05-14T23:44:19.132Z,1.67
2019-05-14T23:46:49.693Z,1.33
2019-05-14T23:49:20.171Z,3.07
2019-05-14T23:51:50.599Z,2.80
2019-05-14T23:54:21.037Z,2.50
2019-05-14T23:56:51.536Z,2.80
2019-05-14T23:59:21.998Z,1.70
